Blue Mound, Kansas
Current Conditions -  °F | °C
As of 7:52 AM on Saturday 22 Nov 2014 (Local Time) from KCNU Reporting Station
Haze Haze  
Wind Chill: 54°   Ceiling: 600
Heat Index: 54°   Visibility: 5mi
Dew Point: 53°   Wind: 14mph
Humidity: 97%   Direction: 180°S
Pressure: 30.01"   Gusts: NA
Location:  38.09°N, 95.01°W
Report Text: KCNU 221352Z AUTO 18012KT 5SM BR OVC006 12/12 A3001 RMK AO2 SLP158 T01220117
Loading
Personal Weather Stations






























Interactive Weather Map New forecast layout! Learn more

10-Day Weather Forecast

Advertisements
Track Severe Weather on mobile